Flight Track Log - Related Links

Times and Time Zones

All times are in EDT time to prevent confusion due to time zone crossing. See the XOJ784 flight status page for this flight to view local times or setup timezone preferences in your user account.

Time Position Orientation Groundspeed Altitude Reporting Facility
EDT Latitude Longitude Course Direction KTS MPH feet Rate Location/Type
Thu 04:08:21 PM 30.1350 -97.5700 99° East 255 293 5,500  Level Houston Center
Thu 04:09:23 PM 30.1611 -97.4825 71° East 283 326 9,400 2,952 Climbing Houston Center
Thu 04:10:25 PM 30.2036 -97.3981 60° Northeast 300 345 11,600 2,129 Climbing Houston Center
Thu 04:11:27 PM 30.2497 -97.2986 62° Northeast 340 391 13,800 2,081 Climbing Houston Center
Thu 04:12:29 PM 30.2969 -97.1975 62° Northeast 353 406 15,900 1,548 Climbing Houston Center
Thu 04:13:00 PM 30.3615 -97.2805 99° East  Level FlightAware Approximate
Thu 04:13:31 PM 30.3483 -97.0669 65° Northeast 380 437 17,000  Level Houston Center
Thu 04:14:33 PM 30.3433 -96.9325 92° East 419 482 17,000  Level Houston Center
Thu 04:15:35 PM 30.3325 -96.7983 95° East 418 481 17,000  Level Houston Center
Thu 04:16:37 PM 30.3125 -96.6656 100° East 417 480 17,000  Level Houston Center
Thu 04:17:39 PM 30.2819 -96.5386 106° East 409 471 17,000 -1,125 Level Houston Center
Thu 04:18:29 PM 30.2550 -96.4200 105° East 417 480 14,900 -2,541 Descending Houston Center
Thu 04:19:30 PM 30.2256 -96.2928 105° East 400 460 12,300 -1,918 Descending Houston Center
Thu 04:20:31 PM 30.1619 -96.1864 125° Southeast 387 445 11,000 -639 Descending Houston Center
Thu 04:21:32 PM 30.0650 -96.1322 154° Southeast 384 442 11,000 -492 Level Houston Center
Thu 04:22:33 PM 29.9772 -96.0844 155° Southeast 320 368 10,000 -1,313 Descending Houston Center
Thu 04:23:40 PM 29.8986 -96.0258 147° Southeast 294 338 8,200 -1,395 Descending Houston Center
Thu 04:24:42 PM 29.8522 -95.9517 126° Southeast 289 333 7,000 -581 Descending Houston Center
Thu 04:25:44 PM 29.8058 -95.8775 126° Southeast 282 325 7,000 -98 Level Houston Center
Thu 04:26:45 PM 29.7619 -95.8056 125° Southeast 246 283 6,800 -492 Descending Houston Center
Thu 04:27:46 PM 29.7228 -95.7428 126° Southeast 231 266 6,000 -393 Descending Houston Center
Thu 04:28:47 PM 29.6856 -95.6797 124° Southeast 236 272 6,000  Level Houston Center
Thu 04:29:49 PM 29.6486 -95.6192 125° Southeast 237 273 6,000 -195 Level Houston Center
Thu 04:30:50 PM 29.6803 -95.5506 62° Northeast 225 259 5,600 -934 Descending Houston Center
Thu 04:31:51 PM 29.7064 -95.4897 64° Northeast 214 246 4,100 -1,561 Descending Houston Center
Thu 04:32:53 PM 29.7108 -95.4244 86° East 202 232 2,400 -1,031 Descending Houston Center
Thu 04:33:59 PM 29.7108 -95.3569 90° East 170 196 1,900 -492 Descending Houston Center
Thu 04:34:55 PM 29.6850 -95.3264 134° Southeast 142 163 1,400 -769 Descending Houston Center
Thu 04:35:56 PM 29.6592 -95.2958 134° Southeast 133 153 400 -542 Descending Houston Center
Thu 04:37:19 PM 29.6286 -95.2586 133° Southeast 142 163 100 -217 Descending Houston Center

Login

Don't have an account? Register now (free) for customized features, flight alerts, and more!